createdAt,value
2022-08-26T00:01:56.866Z,94639.69
2022-08-26T00:04:25.480Z,94637.34
2022-08-26T00:06:54.753Z,94640.81
2022-08-26T00:09:23.560Z,94633.75
2022-08-26T00:11:52.554Z,94638.31
2022-08-26T00:14:19.387Z,94634.88
2022-08-26T00:16:47.479Z,94634.88
2022-08-26T00:19:19.132Z,94634.09
2022-08-26T00:21:48.651Z,94633.84
2022-08-26T00:24:16.784Z,94633.28
2022-08-26T00:26:44.207Z,94625.94
2022-08-26T00:29:12.399Z,94639.09
2022-08-26T00:31:40.790Z,94621.72
2022-08-26T00:34:09.550Z,94628.56
2022-08-26T00:36:39.790Z,94624.88
2022-08-26T00:39:07.749Z,94622.25
2022-08-26T00:41:36.007Z,94615.38
2022-08-26T00:44:03.155Z,94624.81
2022-08-26T00:46:33.709Z,94624.81
2022-08-26T00:49:11.984Z,94624.81
2022-08-26T00:51:52.335Z,94619.06
2022-08-26T00:54:22.936Z,94625.34
2022-08-26T00:56:59.917Z,94616.38
2022-08-26T00:59:29.291Z,94617.16
2022-08-26T01:02:02.895Z,94611.66
2022-08-26T01:04:31.487Z,94616.94
2022-08-26T01:07:00.491Z,94605.38
2022-08-26T01:09:28.155Z,94607.50
2022-08-26T01:11:57.636Z,94597.28
2022-08-26T01:14:26.937Z,94601.34
2022-08-26T01:16:54.570Z,94586.44
2022-08-26T01:19:32.637Z,94593.03
2022-08-26T01:22:05.579Z,94593.38
2022-08-26T01:24:32.614Z,94594.72
2022-08-26T01:27:05.324Z,94600.53
2022-08-26T01:29:34.598Z,94605.81
2022-08-26T01:32:05.102Z,94595.78
2022-08-26T01:34:36.868Z,94604.06
2022-08-26T01:37:17.123Z,94604.56
2022-08-26T01:39:50.969Z,94604.56
2022-08-26T01:42:21.193Z,94609.84
2022-08-26T01:44:59.679Z,94612.56
2022-08-26T01:47:30.204Z,94617.91
2022-08-26T01:49:59.914Z,94614.78
2022-08-26T01:52:29.314Z,94613.19
2022-08-26T01:54:59.162Z,94603.22
2022-08-26T01:57:27.284Z,94605.94
2022-08-26T01:59:58.194Z,94607.03
2022-08-26T02:02:25.091Z,94611.28
2022-08-26T02:05:01.757Z,94611.59
2022-08-26T02:07:29.486Z,94608.22
2022-08-26T02:09:56.901Z,94612.59
2022-08-26T02:12:25.899Z,94618.69
2022-08-26T02:14:58.498Z,94610.28
2022-08-26T02:17:33.884Z,94607.13
2022-08-26T02:20:02.591Z,94609.81
2022-08-26T02:22:30.920Z,94605.09
2022-08-26T02:25:02.276Z,94608.47
2022-08-26T02:27:33.698Z,94613.97
2022-08-26T02:30:17.549Z,94612.59
2022-08-26T02:32:45.293Z,94602.44
2022-08-26T02:35:20.070Z,94572.06
2022-08-26T02:37:49.423Z,94595.63
2022-08-26T02:40:20.783Z,94595.94
2022-08-26T02:42:49.156Z,94595.94
2022-08-26T02:45:16.341Z,94594.09
2022-08-26T02:47:52.894Z,94591.75
2022-08-26T02:50:20.926Z,94595.16
2022-08-26T02:52:48.536Z,94595.22
2022-08-26T02:55:15.638Z,94594.19
2022-08-26T02:57:42.881Z,94586.88
2022-08-26T03:00:11.940Z,94597.94
2022-08-26T03:02:38.780Z,94593.72
2022-08-26T03:05:06.476Z,94597.41
2022-08-26T03:07:33.353Z,94601.06
2022-08-26T03:10:01.056Z,94586.94
2022-08-26T03:12:34.548Z,94601.84
2022-08-26T03:15:01.627Z,94600.03
2022-08-26T03:17:28.465Z,94602.34
2022-08-26T03:19:57.251Z,94605.50
2022-08-26T03:22:25.247Z,94604.72
2022-08-26T03:24:52.676Z,94606.81
2022-08-26T03:27:19.505Z,94609.13
2022-08-26T03:30:04.801Z,94613.50
2022-08-26T03:32:31.645Z,94603.44
2022-08-26T03:34:58.431Z,94595.25
2022-08-26T03:37:25.224Z,94592.91
2022-08-26T03:39:52.834Z,94599.63
2022-08-26T03:42:21.332Z,94599.09
2022-08-26T03:44:48.754Z,94601.66
2022-08-26T03:47:15.833Z,94602.66
2022-08-26T03:49:42.690Z,94605.25
2022-08-26T03:52:10.526Z,94603.13
2022-08-26T03:54:37.760Z,94611.03
2022-08-26T03:57:04.809Z,94617.59
2022-08-26T03:59:32.207Z,94591.13
2022-08-26T04:01:59.049Z,94613.88
2022-08-26T04:04:26.000Z,94612.09
2022-08-26T04:07:01.001Z,94608.38
2022-08-26T04:09:27.951Z,94602.66
2022-08-26T04:11:55.661Z,94599.53
2022-08-26T04:14:25.843Z,94597.41
2022-08-26T04:16:55.402Z,94597.97
2022-08-26T04:19:23.516Z,94602.41
2022-08-26T04:21:53.118Z,94607.38
2022-08-26T04:24:23.922Z,94601.03
2022-08-26T04:26:51.523Z,94599.44
2022-08-26T04:29:23.909Z,94602.25
2022-08-26T04:31:55.227Z,94597.22
2022-08-26T04:34:24.581Z,94598.25
2022-08-26T04:36:54.225Z,94593.50
2022-08-26T04:39:21.015Z,94594.38
2022-08-26T04:41:48.820Z,94601.22
2022-08-26T04:44:18.652Z,94595.38
2022-08-26T04:46:45.817Z,94603.75
2022-08-26T04:49:13.196Z,94605.28
2022-08-26T04:51:40.355Z,94606.28
2022-08-26T04:54:07.499Z,94610.44
2022-08-26T04:56:39.874Z,94601.38
2022-08-26T04:59:17.221Z,94610.78
2022-08-26T05:01:48.674Z,94608.56
2022-08-26T05:04:18.895Z,94617.00
2022-08-26T05:06:49.554Z,94619.13
2022-08-26T05:09:18.575Z,94615.97
2022-08-26T05:11:48.582Z,94625.34
2022-08-26T05:14:20.260Z,94624.47
2022-08-26T05:16:47.974Z,94620.41
2022-08-26T05:19:18.700Z,94621.44
2022-08-26T05:21:47.118Z,94622.06
2022-08-26T05:24:14.445Z,94619.13
2022-08-26T05:26:41.337Z,94614.66
2022-08-26T05:29:08.113Z,94624.25
2022-08-26T05:31:35.584Z,94618.28
2022-08-26T05:34:04.666Z,94623.78
2022-08-26T05:36:34.926Z,94610.25
2022-08-26T05:39:05.070Z,94631.78
2022-08-26T05:41:36.168Z,94628.50
2022-08-26T05:44:06.756Z,94628.91
2022-08-26T05:46:35.136Z,94628.72
2022-08-26T05:49:03.964Z,94630.50
2022-08-26T05:51:31.072Z,94634.59
2022-08-26T05:53:58.218Z,94642.66
2022-08-26T05:56:27.555Z,94636.19
2022-08-26T05:58:58.512Z,94631.59
2022-08-26T06:01:28.431Z,94639.16
2022-08-26T06:04:01.376Z,94631.31
2022-08-26T06:06:34.700Z,94642.09
2022-08-26T06:09:05.598Z,94641.03
2022-08-26T06:11:33.426Z,94647.56
2022-08-26T06:14:04.472Z,94642.28
2022-08-26T06:16:34.751Z,94650.09
2022-08-26T06:19:03.308Z,94640.53
2022-08-26T06:21:33.523Z,94645.22
2022-08-26T06:24:27.265Z,94649.75
2022-08-26T06:27:01.492Z,94651.22
2022-08-26T06:29:31.102Z,94650.72
2022-08-26T06:31:58.426Z,94658.56
2022-08-26T06:34:30.418Z,94661.69
2022-08-26T06:36:59.772Z,94657.41
2022-08-26T06:39:31.144Z,94660.44
2022-08-26T06:41:59.282Z,94655.34
2022-08-26T06:44:27.243Z,94654.09
2022-08-26T06:46:54.222Z,94664.88
2022-08-26T06:49:27.198Z,94671.13
2022-08-26T06:52:00.898Z,94669.16
2022-08-26T06:54:30.356Z,94665.94
2022-08-26T06:56:57.560Z,94659.59
2022-08-26T06:59:25.529Z,94669.34
2022-08-26T07:01:52.605Z,94669.66
2022-08-26T07:04:22.381Z,94665.13
2022-08-26T07:06:52.647Z,94649.53
2022-08-26T07:09:22.232Z,94655.97
2022-08-26T07:11:49.609Z,94660.09
2022-08-26T07:14:19.412Z,94669.28
2022-08-26T07:16:49.714Z,94671.28
2022-08-26T07:19:27.502Z,94674.97
2022-08-26T07:22:02.157Z,94682.72
2022-08-26T07:24:30.032Z,94676.06
2022-08-26T07:27:02.955Z,94681.47
2022-08-26T07:29:32.406Z,94686.66
2022-08-26T07:31:59.921Z,94679.78
2022-08-26T07:34:27.408Z,94683.44
2022-08-26T07:36:55.251Z,94690.72
2022-08-26T07:39:22.752Z,94689.88
2022-08-26T07:41:50.428Z,94690.41
2022-08-26T07:44:18.093Z,94690.56
2022-08-26T07:46:52.060Z,94693.19
2022-08-26T07:49:21.437Z,94700.59
2022-08-26T07:51:49.806Z,94693.84
2022-08-26T07:54:17.114Z,94698.38
2022-08-26T07:56:44.648Z,94693.63
2022-08-26T07:59:13.646Z,94695.00
2022-08-26T08:01:41.437Z,94684.81
2022-08-26T08:04:17.821Z,94698.41
2022-08-26T08:06:45.817Z,94696.75
2022-08-26T08:09:15.596Z,94696.13
2022-08-26T08:11:45.223Z,94702.47
2022-08-26T08:14:13.507Z,94693.44
2022-08-26T08:16:45.933Z,94684.69
2022-08-26T08:19:15.016Z,94687.41
2022-08-26T08:21:43.434Z,94689.16
2022-08-26T08:24:11.733Z,94681.50
2022-08-26T08:26:39.407Z,94680.47
2022-08-26T08:29:08.082Z,94683.34
2022-08-26T08:34:22.907Z,94683.13
2022-08-26T08:36:53.379Z,94687.28
2022-08-26T08:39:22.020Z,94692.66
2022-08-26T08:41:59.951Z,94675.59
2022-08-26T08:47:19.934Z,94675.63
2022-08-26T08:49:47.795Z,94664.94
2022-08-26T08:52:29.802Z,94669.44
2022-08-26T08:54:57.220Z,94655.44
2022-08-26T08:57:55.926Z,94661.00
2022-08-26T09:00:39.750Z,94659.00
2022-08-26T09:03:48.235Z,94655.84
2022-08-26T09:06:18.914Z,94660.75
2022-08-26T09:08:50.477Z,94659.63
2022-08-26T09:11:20.070Z,94658.31
2022-08-26T09:13:53.302Z,94660.09
2022-08-26T09:16:24.443Z,94661.19
2022-08-26T09:19:11.290Z,94663.22
2022-08-26T09:21:38.258Z,94659.91
2022-08-26T09:24:06.307Z,94662.28
2022-08-26T09:26:38.986Z,94665.31
2022-08-26T09:29:11.585Z,94663.31
2022-08-26T09:31:42.202Z,94655.97
2022-08-26T09:34:17.269Z,94655.47
2022-08-26T09:36:56.243Z,94647.94
2022-08-26T09:39:22.985Z,94645.13
2022-08-26T09:42:07.019Z,94643.66
2022-08-26T09:44:35.724Z,94653.41
2022-08-26T09:47:05.810Z,94649.34
2022-08-26T09:49:36.287Z,94647.63
2022-08-26T09:52:15.608Z,94646.50
2022-08-26T09:54:46.127Z,94647.25
2022-08-26T09:57:32.245Z,94645.50
2022-08-26T10:00:01.332Z,94648.44
2022-08-26T10:02:41.729Z,94653.78
2022-08-26T10:05:18.974Z,94657.44
2022-08-26T10:07:50.225Z,94651.25
2022-08-26T10:10:35.340Z,94647.50
2022-08-26T10:13:07.843Z,94647.41
2022-08-26T10:16:00.929Z,94641.75
2022-08-26T10:18:35.548Z,94645.34
2022-08-26T10:21:23.451Z,94632.13
2022-08-26T10:23:53.861Z,94637.84
2022-08-26T10:26:53.406Z,94642.91
2022-08-26T10:29:31.242Z,94641.13
2022-08-26T10:32:03.432Z,94649.47
2022-08-26T10:34:32.645Z,94641.84
2022-08-26T10:37:14.932Z,94643.97
2022-08-26T10:40:00.961Z,94635.44
2022-08-26T10:42:33.280Z,94636.63
2022-08-26T10:45:06.717Z,94633.97
2022-08-26T10:47:47.695Z,94629.31
2022-08-26T10:50:14.972Z,94640.91
2022-08-26T10:53:09.341Z,94651.13
2022-08-26T10:55:46.160Z,94634.22
2022-08-26T10:58:32.010Z,94641.28
2022-08-26T11:01:50.788Z,94635.09
2022-08-26T11:04:22.371Z,94632.16
2022-08-26T11:06:50.138Z,94631.00
2022-08-26T11:09:45.198Z,94627.97
2022-08-26T11:12:58.143Z,94624.25
2022-08-26T11:15:25.074Z,94629.56
2022-08-26T11:17:51.900Z,94630.28
2022-08-26T11:20:27.868Z,94631.47
2022-08-26T11:22:56.409Z,94632.94
2022-08-26T11:25:30.170Z,94632.81
2022-08-26T11:28:00.561Z,94631.59
2022-08-26T11:30:42.778Z,94628.59
2022-08-26T11:33:10.488Z,94642.50
2022-08-26T11:35:37.754Z,94640.22
2022-08-26T11:38:15.399Z,94625.50
2022-08-26T11:40:42.750Z,94625.44
2022-08-26T11:43:19.920Z,94628.56
2022-08-26T11:46:08.644Z,94629.38
2022-08-26T11:48:37.523Z,94631.69
2022-08-26T11:51:09.880Z,94629.34
2022-08-26T11:53:42.701Z,94619.97
2022-08-26T11:56:17.543Z,94623.72
2022-08-26T11:58:46.921Z,94625.34
2022-08-26T12:01:25.971Z,94617.44
2022-08-26T12:03:56.230Z,94624.22
2022-08-26T12:06:28.423Z,94623.13
2022-08-26T12:08:59.886Z,94623.13
2022-08-26T12:11:34.117Z,94624.69
2022-08-26T12:14:08.031Z,94620.59
2022-08-26T12:16:38.746Z,94607.63
2022-08-26T12:19:38.297Z,94617.25
2022-08-26T12:22:27.682Z,94613.00
2022-08-26T12:24:59.036Z,94607.47
2022-08-26T12:27:34.764Z,94599.97
2022-08-26T12:30:05.097Z,94596.22
2022-08-26T12:32:37.327Z,94592.31
2022-08-26T12:35:22.354Z,94595.47
2022-08-26T12:37:53.233Z,94601.94
2022-08-26T12:40:39.993Z,94596.84
2022-08-26T12:43:08.453Z,94595.34
2022-08-26T12:45:43.173Z,94604.31
2022-08-26T12:48:29.465Z,94603.53
2022-08-26T12:50:57.290Z,94598.53
2022-08-26T12:53:27.196Z,94596.19
2022-08-26T12:55:57.140Z,94598.53
2022-08-26T12:58:35.024Z,94602.38
2022-08-26T13:01:05.030Z,94600.78
2022-08-26T13:03:34.770Z,94597.69
2022-08-26T13:06:16.701Z,94593.91
2022-08-26T13:08:48.128Z,94578.47
2022-08-26T13:11:25.025Z,94588.28
2022-08-26T13:14:00.728Z,94594.84
2022-08-26T13:16:29.333Z,94594.47
2022-08-26T13:18:59.116Z,94595.56
2022-08-26T13:21:37.311Z,94586.53
2022-08-26T13:24:14.148Z,94567.19
2022-08-26T13:26:44.822Z,94591.31
2022-08-26T13:29:12.771Z,94586.34
2022-08-26T13:31:42.167Z,94583.66
2022-08-26T13:34:12.216Z,94582.75
2022-08-26T13:36:39.291Z,94561.81
2022-08-26T13:39:06.530Z,94588.31
2022-08-26T13:41:33.490Z,94591.38
2022-08-26T13:44:00.336Z,94583.72
2022-08-26T13:46:28.359Z,94579.16
2022-08-26T13:48:56.964Z,94584.94
2022-08-26T13:51:26.050Z,94577.19
2022-08-26T13:53:53.343Z,94584.50
2022-08-26T13:56:23.022Z,94576.31
2022-08-26T13:58:50.021Z,94579.47
2022-08-26T14:01:17.475Z,94579.19
2022-08-26T14:03:44.669Z,94573.78
2022-08-26T14:06:12.501Z,94587.13
2022-08-26T14:08:40.043Z,94578.22
2022-08-26T14:11:07.079Z,94580.91
2022-08-26T14:13:34.126Z,94580.84
2022-08-26T14:16:04.453Z,94574.75
2022-08-26T14:18:38.405Z,94567.97
2022-08-26T14:21:08.801Z,94571.16
2022-08-26T14:23:35.738Z,94575.84
2022-08-26T14:26:08.139Z,94574.91
2022-08-26T14:28:36.257Z,94566.75
2022-08-26T14:31:04.514Z,94566.41
2022-08-26T14:33:37.280Z,94570.78
2022-08-26T14:36:26.704Z,94580.16
2022-08-26T14:38:55.684Z,94582.63
2022-08-26T14:41:25.158Z,94589.97
2022-08-26T14:44:00.188Z,94573.22
2022-08-26T14:46:32.510Z,94575.25
2022-08-26T14:49:02.447Z,94559.25
2022-08-26T14:51:30.356Z,94572.56
2022-08-26T14:54:12.183Z,94576.66
2022-08-26T14:56:51.323Z,94580.09
2022-08-26T14:59:24.006Z,94573.44
2022-08-26T15:01:51.979Z,94579.22
2022-08-26T15:04:19.636Z,94575.28
2022-08-26T15:06:46.949Z,94581.28
2022-08-26T15:09:13.937Z,94580.53
2022-08-26T15:11:40.815Z,94578.28
2022-08-26T15:14:07.968Z,94581.97
2022-08-26T15:16:47.303Z,94578.09
2022-08-26T15:19:15.410Z,94590.66
2022-08-26T15:21:43.358Z,94590.53
2022-08-26T15:24:10.168Z,94585.66
2022-08-26T15:26:37.062Z,94590.69
2022-08-26T15:29:05.273Z,94587.75
2022-08-26T15:31:36.103Z,94587.09
2022-08-26T15:34:08.553Z,94580.13
2022-08-26T15:36:38.570Z,94577.19
2022-08-26T15:39:07.676Z,94580.78
2022-08-26T15:41:34.742Z,94577.81
2022-08-26T15:44:03.533Z,94579.94
2022-08-26T15:46:31.572Z,94572.22
2022-08-26T15:48:58.625Z,94568.28
2022-08-26T15:51:28.339Z,94574.38
2022-08-26T15:53:59.083Z,94576.06
2022-08-26T15:56:27.723Z,94567.88
2022-08-26T15:58:56.253Z,94571.25
2022-08-26T16:01:27.387Z,94567.16
2022-08-26T16:03:56.148Z,94567.47
2022-08-26T16:06:27.515Z,94570.66
2022-08-26T16:08:56.172Z,94572.06
2022-08-26T16:11:24.367Z,94567.41
2022-08-26T16:13:51.631Z,94565.19
2022-08-26T16:16:19.079Z,94569.19
2022-08-26T16:18:46.116Z,94562.34
2022-08-26T16:21:22.598Z,94559.78
2022-08-26T16:23:49.923Z,94558.84
2022-08-26T16:26:24.332Z,94558.25
2022-08-26T16:28:51.152Z,94552.16
2022-08-26T16:31:18.714Z,94542.91
2022-08-26T16:33:46.335Z,94549.91
2022-08-26T16:36:14.205Z,94546.06
2022-08-26T16:38:41.854Z,94545.25
2022-08-26T16:41:09.319Z,94549.06
2022-08-26T16:43:36.840Z,94545.94
2022-08-26T16:46:07.037Z,94557.31
2022-08-26T16:48:35.295Z,94555.19
2022-08-26T16:51:02.269Z,94545.31
2022-08-26T16:53:29.074Z,94544.31
2022-08-26T16:55:55.881Z,94550.91
2022-08-26T16:58:22.739Z,94545.84
2022-08-26T17:00:49.902Z,94539.13
2022-08-26T17:03:16.930Z,94540.09
2022-08-26T17:05:43.699Z,94545.47
2022-08-26T17:08:10.834Z,94537.06
2022-08-26T17:10:37.986Z,94537.22
2022-08-26T17:13:05.091Z,94539.28
2022-08-26T17:15:32.522Z,94532.25
2022-08-26T17:17:59.439Z,94534.78
2022-08-26T17:20:26.705Z,94535.78
2022-08-26T17:22:55.044Z,94532.34
2022-08-26T17:25:28.440Z,94540.19
2022-08-26T17:30:27.954Z,94543.09
2022-08-26T17:32:57.674Z,94550.47
2022-08-26T17:35:24.750Z,94544.72
2022-08-26T17:37:52.721Z,94545.81
2022-08-26T17:40:24.339Z,94524.19
2022-08-26T17:42:51.893Z,94551.69
2022-08-26T17:47:50.693Z,94556.16
2022-08-26T17:50:18.615Z,94547.31
2022-08-26T17:52:46.719Z,94553.53
2022-08-26T17:55:16.854Z,94548.34
2022-08-26T17:57:44.546Z,94550.00
2022-08-26T18:00:23.537Z,94548.50
2022-08-26T18:02:50.347Z,94553.13
2022-08-26T18:05:17.856Z,94558.00
2022-08-26T18:07:44.919Z,94555.88
2022-08-26T18:10:15.420Z,94554.66
2022-08-26T18:12:43.050Z,94544.69
2022-08-26T18:15:11.981Z,94556.56
2022-08-26T18:17:39.576Z,94561.25
2022-08-26T18:20:12.686Z,94564.25
2022-08-26T18:22:39.905Z,94566.75
2022-08-26T18:25:08.086Z,94563.31
2022-08-26T18:27:37.991Z,94567.19
2022-08-26T18:30:09.815Z,94563.72
2022-08-26T18:32:39.304Z,94573.56
2022-08-26T18:35:06.806Z,94569.00
2022-08-26T18:37:34.318Z,94576.31
2022-08-26T18:40:01.269Z,94578.94
2022-08-26T18:42:28.829Z,94571.78
2022-08-26T18:44:55.652Z,94578.78
2022-08-26T18:47:22.879Z,94582.22
2022-08-26T18:49:49.836Z,94578.47
2022-08-26T18:52:16.953Z,94585.28
2022-08-26T18:54:44.229Z,94593.81
2022-08-26T18:57:12.217Z,94590.06
2022-08-26T18:59:39.151Z,94590.75
2022-08-26T19:02:06.142Z,94593.34
2022-08-26T19:04:33.191Z,94598.66
2022-08-26T19:07:00.190Z,94598.47
2022-08-26T19:09:27.396Z,94596.41
2022-08-26T19:14:26.659Z,94599.06
2022-08-26T19:16:53.911Z,94597.00
2022-08-26T19:19:24.108Z,94595.06
2022-08-26T19:21:51.906Z,94599.41
2022-08-26T19:24:19.962Z,94601.09
2022-08-26T19:26:51.428Z,94566.88
2022-08-26T19:29:26.901Z,94595.19
2022-08-26T19:31:53.887Z,94593.03
2022-08-26T19:34:21.068Z,94596.66
2022-08-26T19:36:48.773Z,94584.38
2022-08-26T19:39:15.740Z,94595.91
2022-08-26T19:41:42.721Z,94595.16
2022-08-26T19:44:13.133Z,94595.97
2022-08-26T19:46:40.629Z,94606.13
2022-08-26T19:49:07.499Z,94596.72
2022-08-26T19:51:35.610Z,94599.47
2022-08-26T19:54:02.897Z,94587.91
2022-08-26T19:56:29.827Z,94573.72
2022-08-26T19:58:57.118Z,94593.75
2022-08-26T20:01:24.281Z,94596.66
2022-08-26T20:03:51.462Z,94596.66
2022-08-26T20:06:20.406Z,94592.53
2022-08-26T20:08:47.602Z,94596.75
2022-08-26T20:11:18.978Z,94587.44
2022-08-26T20:13:47.191Z,94590.75
2022-08-26T20:16:15.394Z,94587.59
2022-08-26T20:19:02.151Z,94585.53
2022-08-26T20:21:34.142Z,94590.91
2022-08-26T20:24:14.943Z,94589.31
2022-08-26T20:26:43.665Z,94597.31
2022-08-26T20:29:13.320Z,94593.38
2022-08-26T20:31:40.961Z,94585.78
2022-08-26T20:34:07.970Z,94590.53
2022-08-26T20:36:35.072Z,94592.03
2022-08-26T20:39:02.391Z,94582.19
2022-08-26T20:41:29.298Z,94592.75
2022-08-26T20:43:56.631Z,94598.41
2022-08-26T20:46:25.228Z,94591.34
2022-08-26T20:48:53.646Z,94589.84
2022-08-26T20:51:23.598Z,94601.38
2022-08-26T20:53:51.136Z,94599.69
2022-08-26T20:56:23.624Z,94604.75
2022-08-26T20:58:58.438Z,94615.91
2022-08-26T21:01:30.618Z,94611.31
2022-08-26T21:03:57.562Z,94606.84
2022-08-26T21:06:24.390Z,94603.25
2022-08-26T21:08:51.417Z,94598.53
2022-08-26T21:11:20.535Z,94610.09
2022-08-26T21:14:04.406Z,94611.66
2022-08-26T21:16:36.759Z,94612.75
2022-08-26T21:19:08.470Z,94614.47
2022-08-26T21:21:35.343Z,94611.31
2022-08-26T21:24:03.131Z,94603.56
2022-08-26T21:26:29.906Z,94611.25
2022-08-26T21:28:56.766Z,94613.66
2022-08-26T21:31:25.206Z,94610.56
2022-08-26T21:33:52.678Z,94604.84
2022-08-26T21:36:19.657Z,94617.78
2022-08-26T21:38:46.455Z,94612.28
2022-08-26T21:41:19.387Z,94614.41
2022-08-26T21:43:47.896Z,94597.72
2022-08-26T21:46:18.032Z,94606.69
2022-08-26T21:48:59.049Z,94612.50
2022-08-26T21:51:28.645Z,94610.34
2022-08-26T21:53:57.230Z,94615.63
2022-08-26T21:56:27.941Z,94613.03
2022-08-26T21:58:56.429Z,94613.69
2022-08-26T22:01:26.007Z,94606.59
2022-08-26T22:03:53.596Z,94616.34
2022-08-26T22:06:24.008Z,94616.34
2022-08-26T22:08:51.814Z,94618.25
2022-08-26T22:11:18.966Z,94621.69
2022-08-26T22:13:46.862Z,94616.78
2022-08-26T22:16:14.834Z,94616.28
2022-08-26T22:18:45.877Z,94610.22
2022-08-26T22:21:24.865Z,94614.47
2022-08-26T22:23:52.587Z,94612.13
2022-08-26T22:26:27.366Z,94608.69
2022-08-26T22:28:55.592Z,94612.59
2022-08-26T22:31:36.921Z,94614.44
2022-08-26T22:34:08.337Z,94609.22
2022-08-26T22:36:36.132Z,94620.25
2022-08-26T22:39:10.405Z,94615.56
2022-08-26T22:41:40.035Z,94616.13
2022-08-26T22:44:07.524Z,94622.47
2022-08-26T22:46:36.689Z,94601.00
2022-08-26T22:49:04.866Z,94625.38
2022-08-26T22:51:32.205Z,94626.66
2022-08-26T22:53:59.321Z,94628.31
2022-08-26T22:56:26.204Z,94630.16
2022-08-26T22:58:53.143Z,94632.03
2022-08-26T23:01:20.041Z,94629.94
2022-08-26T23:03:47.030Z,94624.66
2022-08-26T23:06:13.860Z,94624.16
2022-08-26T23:08:41.932Z,94627.28
2022-08-26T23:11:10.625Z,94622.56
2022-08-26T23:13:39.095Z,94628.34
2022-08-26T23:16:09.289Z,94616.81
2022-08-26T23:18:36.747Z,94628.94
2022-08-26T23:21:03.920Z,94622.66
2022-08-26T23:23:31.167Z,94619.03
2022-08-26T23:25:58.415Z,94623.22
2022-08-26T23:28:26.427Z,94630.03
2022-08-26T23:30:54.021Z,94633.75
2022-08-26T23:33:21.197Z,94634.25
2022-08-26T23:35:48.181Z,94629.00
2022-08-26T23:38:16.275Z,94623.75
2022-08-26T23:40:43.088Z,94631.63
2022-08-26T23:43:13.574Z,94619.53
2022-08-26T23:45:40.443Z,94619.53
2022-08-26T23:48:07.589Z,94622.97
2022-08-26T23:50:53.105Z,94620.63
2022-08-26T23:53:22.289Z,94623.28
2022-08-26T23:55:51.271Z,94630.13
2022-08-26T23:58:19.913Z,94625.94
